sensor_id;sensor_type;location;lat;lon;timestamp;pressure;altitude;pressure_sealevel;temperature;humidity
80164;BME280;70071;55.130;61.268;2023-07-13T00:02:24;97811.31;;;20.09;60.31
80164;BME280;70071;55.130;61.268;2023-07-13T00:04:52;97810.50;;;20.09;60.31
80164;BME280;70071;55.130;61.268;2023-07-13T00:07:18;97817.50;;;20.10;60.28
80164;BME280;70071;55.130;61.268;2023-07-13T00:09:47;97823.97;;;20.14;60.05
80164;BME280;70071;55.130;61.268;2023-07-13T00:12:28;97825.28;;;20.21;59.97
80164;BME280;70071;55.130;61.268;2023-07-13T00:15:07;97824.47;;;20.21;59.70
80164;BME280;70071;55.130;61.268;2023-07-13T00:17:33;97829.59;;;20.17;59.71
80164;BME280;70071;55.130;61.268;2023-07-13T00:19:58;97829.59;;;20.17;59.63
80164;BME280;70071;55.130;61.268;2023-07-13T00:22:25;97824.75;;;20.19;59.82
80164;BME280;70071;55.130;61.268;2023-07-13T00:24:54;97823.91;;;20.24;59.72
80164;BME280;70071;55.130;61.268;2023-07-13T00:27:24;97823.94;;;20.19;59.77
80164;BME280;70071;55.130;61.268;2023-07-13T00:29:52;97821.22;;;20.19;59.23
80164;BME280;70071;55.130;61.268;2023-07-13T00:32:18;97834.44;;;20.20;59.07
80164;BME280;70071;55.130;61.268;2023-07-13T00:34:44;97837.66;;;20.22;59.00
80164;BME280;70071;55.130;61.268;2023-07-13T00:37:10;97840.88;;;20.24;59.03
80164;BME280;70071;55.130;61.268;2023-07-13T00:39:36;97846.00;;;20.26;58.93
80164;BME280;70071;55.130;61.268;2023-07-13T00:42:03;97858.34;;;20.32;58.45
80164;BME280;70071;55.130;61.268;2023-07-13T00:44:30;97857.00;;;20.35;58.23
80164;BME280;70071;55.130;61.268;2023-07-13T00:46:55;97849.72;;;20.35;57.93
80164;BME280;70071;55.130;61.268;2023-07-13T00:49:26;97863.41;;;20.49;57.54
80164;BME280;70071;55.130;61.268;2023-07-13T00:52:00;97859.53;;;20.76;56.83
80164;BME280;70071;55.130;61.268;2023-07-13T00:54:31;97865.19;;;21.54;54.64
80164;BME280;70071;55.130;61.268;2023-07-13T00:56:59;97867.47;;;21.71;54.01
80164;BME280;70071;55.130;61.268;2023-07-13T00:59:26;97862.88;;;21.71;53.59
80164;BME280;70071;55.130;61.268;2023-07-13T01:01:52;97866.25;;;22.11;53.87
80164;BME280;70071;55.130;61.268;2023-07-13T01:04:18;97866.69;;;21.94;52.72
80164;BME280;70071;55.130;61.268;2023-07-13T01:06:45;97870.34;;;21.79;52.42
80164;BME280;70071;55.130;61.268;2023-07-13T01:09:13;97874.00;;;21.64;52.29
80164;BME280;70071;55.130;61.268;2023-07-13T01:11:40;97880.53;;;21.58;52.97
80164;BME280;70071;55.130;61.268;2023-07-13T01:14:06;97881.38;;;21.54;52.46
80164;BME280;70071;55.130;61.268;2023-07-13T01:16:35;97876.91;;;21.73;51.72
80164;BME280;70071;55.130;61.268;2023-07-13T01:19:04;97877.34;;;22.34;49.83
80164;BME280;70071;55.130;61.268;2023-07-13T01:21:34;97884.84;;;23.56;47.39
80164;BME280;70071;55.130;61.268;2023-07-13T01:24:00;97888.97;;;24.70;44.48
80164;BME280;70071;55.130;61.268;2023-07-13T01:26:27;97892.91;;;25.60;42.14
80164;BME280;70071;55.130;61.268;2023-07-13T01:28:53;97892.75;;;26.76;44.02
80164;BME280;70071;55.130;61.268;2023-07-13T01:31:21;97890.88;;;27.12;39.02
80164;BME280;70071;55.130;61.268;2023-07-13T01:33:47;97896.63;;;28.19;41.18
80164;BME280;70071;55.130;61.268;2023-07-13T01:36:13;97899.31;;;28.36;36.36
80164;BME280;70071;55.130;61.268;2023-07-13T01:38:39;97904.72;;;28.75;35.25
80164;BME280;70071;55.130;61.268;2023-07-13T01:41:05;97897.28;;;29.05;34.04
80164;BME280;70071;55.130;61.268;2023-07-13T01:43:31;97908.94;;;29.36;33.28
80164;BME280;70071;55.130;61.268;2023-07-13T01:45:58;97916.19;;;29.53;32.96
80164;BME280;70071;55.130;61.268;2023-07-13T01:48:23;97905.63;;;29.64;32.35
80164;BME280;70071;55.130;61.268;2023-07-13T01:50:49;97911.69;;;29.69;31.40
80164;BME280;70071;55.130;61.268;2023-07-13T01:53:15;97919.94;;;29.82;30.94
80164;BME280;70071;55.130;61.268;2023-07-13T01:55:41;97915.19;;;30.03;30.41
80164;BME280;70071;55.130;61.268;2023-07-13T01:58:08;97913.19;;;30.12;30.21
80164;BME280;70071;55.130;61.268;2023-07-13T02:00:33;97914.59;;;30.43;29.75
80164;BME280;70071;55.130;61.268;2023-07-13T02:02:59;97916.13;;;30.94;29.52
80164;BME280;70071;55.130;61.268;2023-07-13T02:05:25;97913.56;;;31.26;28.04
80164;BME280;70071;55.130;61.268;2023-07-13T02:07:51;97908.97;;;31.30;28.31
80164;BME280;70071;55.130;61.268;2023-07-13T02:10:18;97912.81;;;31.13;27.89
80164;BME280;70071;55.130;61.268;2023-07-13T15:57:10;97527.19;;;36.30;17.45
80164;BME280;70071;55.130;61.268;2023-07-13T15:59:41;97521.56;;;35.90;20.04
80164;BME280;70071;55.130;61.268;2023-07-13T16:02:16;97524.59;;;35.67;18.38
80164;BME280;70071;55.130;61.268;2023-07-13T16:04:43;97504.38;;;35.45;19.56
80164;BME280;70071;55.130;61.268;2023-07-13T16:07:10;97488.16;;;35.32;19.16
80164;BME280;70071;55.130;61.268;2023-07-13T16:09:37;97509.84;;;35.37;19.53
80164;BME280;70071;55.130;61.268;2023-07-13T16:12:10;97495.19;;;35.26;19.19
80164;BME280;70071;55.130;61.268;2023-07-13T16:14:37;97488.09;;;35.25;19.33
80164;BME280;70071;55.130;61.268;2023-07-13T16:17:03;97486.50;;;35.24;19.79
80164;BME280;70071;55.130;61.268;2023-07-13T16:19:32;97497.22;;;35.29;19.87
80164;BME280;70071;55.130;61.268;2023-07-13T16:21:59;97496.03;;;35.30;20.05
80164;BME280;70071;55.130;61.268;2023-07-13T16:24:26;97505.09;;;35.31;20.05
80164;BME280;70071;55.130;61.268;2023-07-13T16:26:53;97510.63;;;35.31;19.86
80164;BME280;70071;55.130;61.268;2023-07-13T16:29:26;97493.50;;;35.07;20.43
80164;BME280;70071;55.130;61.268;2023-07-13T16:32:10;97497.84;;;35.04;19.44
80164;BME280;70071;55.130;61.268;2023-07-13T16:34:38;97499.25;;;34.80;19.82
80164;BME280;70071;55.130;61.268;2023-07-13T16:37:14;97485.28;;;34.62;19.69
80164;BME280;70071;55.130;61.268;2023-07-13T16:39:44;97510.09;;;34.62;20.49
80164;BME280;70071;55.130;61.268;2023-07-13T16:42:11;97490.66;;;34.44;20.49
80164;BME280;70071;55.130;61.268;2023-07-13T16:44:37;97498.09;;;34.40;20.89
80164;BME280;70071;55.130;61.268;2023-07-13T16:47:08;97474.53;;;34.09;20.70
80164;BME280;70071;55.130;61.268;2023-07-13T16:49:38;97511.66;;;34.22;21.16
80164;BME280;70071;55.130;61.268;2023-07-13T16:52:04;97514.22;;;34.04;21.25
80164;BME280;70071;55.130;61.268;2023-07-13T16:54:33;97494.69;;;33.79;21.30
80164;BME280;70071;55.130;61.268;2023-07-13T16:57:01;97511.06;;;33.72;21.90
80164;BME280;70071;55.130;61.268;2023-07-13T16:59:33;97481.72;;;33.49;21.13
80164;BME280;70071;55.130;61.268;2023-07-13T17:02:01;97490.34;;;33.47;21.66
80164;BME280;70071;55.130;61.268;2023-07-13T17:04:29;97478.94;;;33.45;21.33
80164;BME280;70071;55.130;61.268;2023-07-13T17:06:57;97471.28;;;33.32;21.53
80164;BME280;70071;55.130;61.268;2023-07-13T17:09:24;97476.34;;;33.29;22.36
80164;BME280;70071;55.130;61.268;2023-07-13T17:11:51;97471.53;;;33.19;21.99
80164;BME280;70071;55.130;61.268;2023-07-13T17:14:21;97471.69;;;33.07;22.53
80164;BME280;70071;55.130;61.268;2023-07-13T17:16:50;97462.88;;;32.94;22.19
80164;BME280;70071;55.130;61.268;2023-07-13T17:19:18;97464.50;;;32.72;21.85
80164;BME280;70071;55.130;61.268;2023-07-13T17:21:46;97460.50;;;32.42;22.65
80164;BME280;70071;55.130;61.268;2023-07-13T17:24:18;97468.19;;;32.33;22.91
80164;BME280;70071;55.130;61.268;2023-07-13T17:26:46;97473.50;;;32.22;22.74
80164;BME280;70071;55.130;61.268;2023-07-13T17:29:13;97464.69;;;32.13;22.83
80164;BME280;70071;55.130;61.268;2023-07-13T17:31:39;97475.09;;;32.04;23.39
80164;BME280;70071;55.130;61.268;2023-07-13T17:34:11;97458.22;;;31.82;22.86
80164;BME280;70071;55.130;61.268;2023-07-13T17:36:37;97469.53;;;31.81;23.22
80164;BME280;70071;55.130;61.268;2023-07-13T17:39:16;97465.44;;;31.71;22.90
80164;BME280;70071;55.130;61.268;2023-07-13T17:41:43;97462.78;;;31.55;23.48
80164;BME280;70071;55.130;61.268;2023-07-13T17:44:11;97452.41;;;31.29;23.12
80164;BME280;70071;55.130;61.268;2023-07-13T17:46:39;97465.53;;;31.20;23.48
80164;BME280;70071;55.130;61.268;2023-07-13T17:49:17;97436.50;;;30.99;22.98
80164;BME280;70071;55.130;61.268;2023-07-13T17:51:47;97426.47;;;30.71;23.22
80164;BME280;70071;55.130;61.268;2023-07-13T17:54:14;97456.00;;;30.62;24.00
80164;BME280;70071;55.130;61.268;2023-07-13T17:56:40;97449.72;;;30.45;23.87
80164;BME280;70071;55.130;61.268;2023-07-13T17:59:06;97452.44;;;30.29;24.16
80164;BME280;70071;55.130;61.268;2023-07-13T18:01:35;97461.00;;;30.28;24.55
80164;BME280;70071;55.130;61.268;2023-07-13T18:04:07;97438.13;;;30.04;25.16
80164;BME280;70071;55.130;61.268;2023-07-13T18:06:37;97444.47;;;30.08;24.93
80164;BME280;70071;55.130;61.268;2023-07-13T18:09:19;97452.25;;;30.06;24.26
80164;BME280;70071;55.130;61.268;2023-07-13T18:11:46;97442.53;;;29.93;25.64
80164;BME280;70071;55.130;61.268;2023-07-13T18:14:12;97441.19;;;29.87;25.61
80164;BME280;70071;55.130;61.268;2023-07-13T18:16:40;97415.31;;;29.56;25.92
80164;BME280;70071;55.130;61.268;2023-07-13T18:19:41;97429.44;;;29.58;26.08
80164;BME280;70071;55.130;61.268;2023-07-13T18:22:16;97447.69;;;29.54;25.92
80164;BME280;70071;55.130;61.268;2023-07-13T18:24:43;97417.25;;;29.15;25.60
80164;BME280;70071;55.130;61.268;2023-07-13T18:27:09;97411.84;;;29.02;25.81
80164;BME280;70071;55.130;61.268;2023-07-13T18:29:35;97429.13;;;29.06;26.18
80164;BME280;70071;55.130;61.268;2023-07-13T18:32:03;97432.22;;;28.93;26.22
80164;BME280;70071;55.130;61.268;2023-07-13T18:34:37;97437.13;;;28.87;26.84
80164;BME280;70071;55.130;61.268;2023-07-13T18:37:19;97426.00;;;28.67;27.19
80164;BME280;70071;55.130;61.268;2023-07-13T18:39:49;97448.75;;;28.59;27.36
80164;BME280;70071;55.130;61.268;2023-07-13T18:42:19;97407.75;;;28.22;27.59
80164;BME280;70071;55.130;61.268;2023-07-13T18:44:45;97437.91;;;28.38;27.52
80164;BME280;70071;55.130;61.268;2023-07-13T18:47:16;97431.19;;;28.23;27.50
80164;BME280;70071;55.130;61.268;2023-07-13T18:49:43;97455.63;;;28.32;27.96
80164;BME280;70071;55.130;61.268;2023-07-13T18:52:19;97443.34;;;28.26;28.18
80164;BME280;70071;55.130;61.268;2023-07-13T18:54:45;97419.03;;;27.87;28.11
80164;BME280;70071;55.130;61.268;2023-07-13T18:57:11;97439.47;;;27.93;27.90
80164;BME280;70071;55.130;61.268;2023-07-13T18:59:37;97436.06;;;27.84;28.29
80164;BME280;70071;55.130;61.268;2023-07-13T19:02:10;97423.06;;;27.69;28.03
80164;BME280;70071;55.130;61.268;2023-07-13T19:04:36;97416.97;;;27.51;28.42
80164;BME280;70071;55.130;61.268;2023-07-13T19:07:02;97420.81;;;27.50;28.96
80164;BME280;70071;55.130;61.268;2023-07-13T19:09:28;97420.78;;;27.37;28.69
80164;BME280;70071;55.130;61.268;2023-07-13T19:11:54;97417.78;;;27.30;28.79
80164;BME280;70071;55.130;61.268;2023-07-13T19:14:22;97411.00;;;27.15;29.48
80164;BME280;70071;55.130;61.268;2023-07-13T19:16:49;97433.16;;;27.35;29.39
80164;BME280;70071;55.130;61.268;2023-07-13T19:19:16;97431.53;;;27.34;29.41
80164;BME280;70071;55.130;61.268;2023-07-13T19:21:45;97433.06;;;27.43;29.84
80164;BME280;70071;55.130;61.268;2023-07-13T19:24:16;97428.28;;;27.40;29.31
80164;BME280;70071;55.130;61.268;2023-07-13T19:26:45;97399.13;;;27.20;29.17
80164;BME280;70071;55.130;61.268;2023-07-13T19:29:17;97417.13;;;27.33;29.93
80164;BME280;70071;55.130;61.268;2023-07-13T19:31:45;97396.91;;;27.13;29.67
80164;BME280;70071;55.130;61.268;2023-07-13T19:34:24;97412.19;;;27.26;29.73
80164;BME280;70071;55.130;61.268;2023-07-13T19:37:14;97421.59;;;27.38;29.85
80164;BME280;70071;55.130;61.268;2023-07-13T19:39:42;97412.34;;;27.30;29.89
80164;BME280;70071;55.130;61.268;2023-07-13T19:42:16;97401.63;;;27.25;29.74
80164;BME280;70071;55.130;61.268;2023-07-13T19:44:43;97379.00;;;27.12;29.75
80164;BME280;70071;55.130;61.268;2023-07-13T19:47:13;97395.91;;;27.18;29.91
80164;BME280;70071;55.130;61.268;2023-07-13T19:49:39;97395.44;;;27.16;29.85
80164;BME280;70071;55.130;61.268;2023-07-13T19:52:12;97390.00;;;27.16;29.78
80164;BME280;70071;55.130;61.268;2023-07-13T19:54:39;97391.00;;;27.11;29.90
80164;BME280;70071;55.130;61.268;2023-07-13T19:57:15;97389.06;;;27.11;29.88
80164;BME280;70071;55.130;61.268;2023-07-13T19:59:41;97387.34;;;27.07;30.06
80164;BME280;70071;55.130;61.268;2023-07-13T20:02:07;97379.66;;;27.09;29.96
80164;BME280;70071;55.130;61.268;2023-07-13T20:04:33;97386.56;;;27.06;29.88
80164;BME280;70071;55.130;61.268;2023-07-13T20:07:00;97362.84;;;27.07;30.20
80164;BME280;70071;55.130;61.268;2023-07-13T20:09:26;97377.94;;;27.04;30.00
80164;BME280;70071;55.130;61.268;2023-07-13T20:11:53;97355.56;;;26.99;30.08
80164;BME280;70071;55.130;61.268;2023-07-13T20:14:19;97356.78;;;27.22;29.81
80164;BME280;70071;55.130;61.268;2023-07-13T20:16:47;97353.94;;;26.98;29.99
80164;BME280;70071;55.130;61.268;2023-07-13T20:19:14;97335.50;;;26.82;29.92
80164;BME280;70071;55.130;61.268;2023-07-13T20:21:41;97352.91;;;26.90;29.95
80164;BME280;70071;55.130;61.268;2023-07-13T20:24:15;97343.22;;;26.80;30.60
80164;BME280;70071;55.130;61.268;2023-07-13T20:26:46;97337.63;;;26.76;30.96
80164;BME280;70071;55.130;61.268;2023-07-13T20:29:15;97323.91;;;26.64;30.75
80164;BME280;70071;55.130;61.268;2023-07-13T20:31:42;97335.91;;;26.72;30.93
80164;BME280;70071;55.130;61.268;2023-07-13T20:34:25;97334.31;;;26.71;30.77
80164;BME280;70071;55.130;61.268;2023-07-13T20:36:55;97341.66;;;26.70;30.38
80164;BME280;70071;55.130;61.268;2023-07-13T20:39:21;97328.41;;;26.69;30.96
80164;BME280;70071;55.130;61.268;2023-07-13T20:41:48;97331.59;;;26.71;30.77
80164;BME280;70071;55.130;61.268;2023-07-13T20:44:14;97336.88;;;26.67;31.21
80164;BME280;70071;55.130;61.268;2023-07-13T20:46:40;97330.66;;;26.88;31.08
80164;BME280;70071;55.130;61.268;2023-07-13T20:49:05;97304.25;;;26.58;30.83
80164;BME280;70071;55.130;61.268;2023-07-13T20:51:31;97318.63;;;26.89;30.74
80164;BME280;70071;55.130;61.268;2023-07-13T20:53:57;97316.66;;;26.77;31.14
80164;BME280;70071;55.130;61.268;2023-07-13T20:56:26;97289.75;;;26.54;31.31
80164;BME280;70071;55.130;61.268;2023-07-13T20:58:52;97305.41;;;26.57;32.03
80164;BME280;70071;55.130;61.268;2023-07-13T21:01:33;97314.06;;;26.81;31.30
80164;BME280;70071;55.130;61.268;2023-07-13T21:04:02;97314.81;;;26.39;31.48
80164;BME280;70071;55.130;61.268;2023-07-13T21:06:29;97288.84;;;26.20;32.12
80164;BME280;70071;55.130;61.268;2023-07-13T21:08:57;97299.56;;;26.17;31.88
80164;BME280;70071;55.130;61.268;2023-07-13T21:11:23;97290.63;;;26.16;32.08
80164;BME280;70071;55.130;61.268;2023-07-13T21:13:49;97287.25;;;26.19;31.56
80164;BME280;70071;55.130;61.268;2023-07-13T21:18:43;97298.50;;;26.09;31.80
80164;BME280;70071;55.130;61.268;2023-07-13T21:21:12;97303.94;;;26.09;31.85
80164;BME280;70071;55.130;61.268;2023-07-13T21:23:39;97272.66;;;25.94;31.73
80164;BME280;70071;55.130;61.268;2023-07-13T21:26:05;97292.31;;;26.00;31.54
80164;BME280;70071;55.130;61.268;2023-07-13T21:28:38;97299.03;;;25.94;32.17
80164;BME280;70071;55.130;61.268;2023-07-13T21:31:08;97291.28;;;26.13;31.73
80164;BME280;70071;55.130;61.268;2023-07-13T21:33:37;97292.78;;;25.93;32.08
80164;BME280;70071;55.130;61.268;2023-07-13T21:36:03;97293.31;;;25.86;31.93
80164;BME280;70071;55.130;61.268;2023-07-13T21:38:33;97268.44;;;25.67;32.32
80164;BME280;70071;55.130;61.268;2023-07-13T21:41:06;97294.59;;;25.80;31.91
80164;BME280;70071;55.130;61.268;2023-07-13T21:43:38;97262.72;;;25.60;32.09
80164;BME280;70071;55.130;61.268;2023-07-13T21:46:04;97289.41;;;26.05;31.56
80164;BME280;70071;55.130;61.268;2023-07-13T21:48:29;97283.28;;;25.78;32.21
80164;BME280;70071;55.130;61.268;2023-07-13T21:50:55;97293.09;;;25.92;32.05
80164;BME280;70071;55.130;61.268;2023-07-13T21:55:53;97298.19;;;25.63;32.35
80164;BME280;70071;55.130;61.268;2023-07-13T21:58:37;97270.41;;;25.58;32.27
80164;BME280;70071;55.130;61.268;2023-07-13T22:01:16;97268.78;;;25.57;32.87
80164;BME280;70071;55.130;61.268;2023-07-13T22:03:42;97254.00;;;25.45;32.56
80164;BME280;70071;55.130;61.268;2023-07-13T22:06:20;97250.16;;;25.46;32.33
80164;BME280;70071;55.130;61.268;2023-07-13T22:08:46;97240.56;;;25.40;32.91
80164;BME280;70071;55.130;61.268;2023-07-13T22:11:18;97237.91;;;25.31;32.76
80164;BME280;70071;55.130;61.268;2023-07-13T22:13:44;97255.94;;;25.36;33.24
80164;BME280;70071;55.130;61.268;2023-07-13T22:18:45;97228.22;;;25.04;33.26
80164;BME280;70071;55.130;61.268;2023-07-13T22:21:12;97198.72;;;24.76;33.37
80164;BME280;70071;55.130;61.268;2023-07-13T22:23:39;97236.34;;;24.78;33.80
80164;BME280;70071;55.130;61.268;2023-07-13T22:26:23;97240.84;;;24.82;33.69
80164;BME280;70071;55.130;61.268;2023-07-13T22:28:52;97187.72;;;24.38;33.44
80164;BME280;70071;55.130;61.268;2023-07-13T22:31:19;97199.66;;;24.45;33.70
80164;BME280;70071;55.130;61.268;2023-07-13T22:33:45;97187.72;;;24.38;33.71
80164;BME280;70071;55.130;61.268;2023-07-13T22:36:11;97234.59;;;24.91;33.40
80164;BME280;70071;55.130;61.268;2023-07-13T22:38:38;97200.94;;;24.30;33.71
80164;BME280;70071;55.130;61.268;2023-07-13T22:41:07;97196.00;;;24.24;33.95
80164;BME280;70071;55.130;61.268;2023-07-13T22:43:33;97211.63;;;24.36;33.82
80164;BME280;70071;55.130;61.268;2023-07-13T22:46:00;97210.19;;;24.38;33.71
80164;BME280;70071;55.130;61.268;2023-07-13T22:48:31;97201.41;;;24.24;33.86
80164;BME280;70071;55.130;61.268;2023-07-13T22:50:57;97182.75;;;24.13;33.54
80164;BME280;70071;55.130;61.268;2023-07-13T22:53:24;97217.81;;;24.01;34.33
80164;BME280;70071;55.130;61.268;2023-07-13T22:55:51;97162.75;;;23.26;34.48
80164;BME280;70071;55.130;61.268;2023-07-13T22:58:18;97171.88;;;23.38;34.54
80164;BME280;70071;55.130;61.268;2023-07-13T23:03:31;97176.16;;;23.31;34.84
80164;BME280;70071;55.130;61.268;2023-07-13T23:05:58;97155.75;;;23.24;34.96
80164;BME280;70071;55.130;61.268;2023-07-13T23:08:27;97193.56;;;23.47;34.87
80164;BME280;70071;55.130;61.268;2023-07-13T23:10:54;97164.34;;;23.27;35.21
80164;BME280;70071;55.130;61.268;2023-07-13T23:13:28;97163.88;;;23.33;35.23
80164;BME280;70071;55.130;61.268;2023-07-13T23:15:54;97159.34;;;23.11;35.31
80164;BME280;70071;55.130;61.268;2023-07-13T23:18:20;97162.69;;;23.17;35.45
80164;BME280;70071;55.130;61.268;2023-07-13T23:20:46;97172.75;;;23.56;35.30
80164;BME280;70071;55.130;61.268;2023-07-13T23:23:16;97133.78;;;22.95;35.50
80164;BME280;70071;55.130;61.268;2023-07-13T23:25:42;97160.47;;;22.87;35.99
80164;BME280;70071;55.130;61.268;2023-07-13T23:28:08;97168.94;;;22.95;36.31
80164;BME280;70071;55.130;61.268;2023-07-13T23:30:35;97147.09;;;22.91;36.05
80164;BME280;70071;55.130;61.268;2023-07-13T23:33:09;97154.31;;;23.27;35.98
80164;BME280;70071;55.130;61.268;2023-07-13T23:35:37;97150.31;;;23.16;35.38
80164;BME280;70071;55.130;61.268;2023-07-13T23:38:03;97144.75;;;23.21;35.65
80164;BME280;70071;55.130;61.268;2023-07-13T23:40:29;97143.94;;;23.20;35.61
80164;BME280;70071;55.130;61.268;2023-07-13T23:42:55;97131.47;;;23.11;35.82
80164;BME280;70071;55.130;61.268;2023-07-13T23:45:25;97156.75;;;23.37;36.08
80164;BME280;70071;55.130;61.268;2023-07-13T23:47:53;97141.25;;;23.20;36.01
80164;BME280;70071;55.130;61.268;2023-07-13T23:50:22;97150.00;;;23.17;35.96
80164;BME280;70071;55.130;61.268;2023-07-13T23:52:49;97147.50;;;23.30;35.92
80164;BME280;70071;55.130;61.268;2023-07-13T23:55:21;97135.47;;;23.13;36.04
80164;BME280;70071;55.130;61.268;2023-07-13T23:57:48;97137.09;;;23.23;36.03
